»·PEaware :: N4628G KVGT-KTOA

N4628G :: KVGT-KTOA

FLIGHT INFORMATION

Flight Status: Arrived
Operator: Privately registered:
United States
More flights under this callsign
Pilot: Anonymous 23877 (23877)
Aircraft: Unknown
(B60T)
More flights by this aircraft type
Origin: KVGT North Las Vegas
United States
Destination: KTOA Zamperini
United States
More flights between these airports :: More routes between these airports
Route: NOTWN5 LAS BOACH HEC KAYOH7
File this flight plan on PilotEdge
Remarks: +CW / NO REMARKS
Altitude:
(Current/Filed)
24,000ft
Speed:
(Current/Filed)
200kts
Departed: 29-Nov-19 02:32 PM
Arrived: 29-Nov-19 03:53 PM
Distance/Time
Traveled:
212nm/1:21
Distance/Time
To Go:
Arrived

Flight Plot

Page will automatically refresh every two minutes.

Flight plan parsing failed; only flown route is shown


Map Options




Map Legend


Flown Route
Filed Route
Departure Airport
Arrival Airport
Navaid (VOR, NDB)
Fix

Horizontal Profiles

Position Reports

Time Latitude Longitude Heading Altitude Ground
Speed
29-Nov-19 14:02 36.209152 -115.198260 316 2208ft 0kts
29-Nov-19 14:03 36.209152 -115.198260 316 2208ft 0kts
29-Nov-19 14:04 36.209154 -115.198262 316 2208ft 0kts
29-Nov-19 14:05 36.209156 -115.198265 316 2208ft 0kts
29-Nov-19 14:06 36.209159 -115.198268 316 2208ft 0kts
29-Nov-19 14:07 36.209161 -115.198271 316 2208ft 0kts
29-Nov-19 14:08 36.209163 -115.198273 316 2208ft 0kts
29-Nov-19 14:09 36.209166 -115.198276 316 2208ft 0kts
29-Nov-19 14:10 36.209168 -115.198279 316 2208ft 0kts
29-Nov-19 14:11 36.209171 -115.198282 316 2208ft 0kts
29-Nov-19 14:12 36.209173 -115.198285 316 2208ft 0kts
29-Nov-19 14:13 36.209176 -115.198288 316 2208ft 0kts
29-Nov-19 14:14 36.209179 -115.198291 316 2208ft 0kts
29-Nov-19 14:15 36.209182 -115.198295 316 2208ft 0kts
29-Nov-19 14:16 36.209185 -115.198299 316 2208ft 0kts
29-Nov-19 14:17 36.209188 -115.198303 316 2208ft 0kts
29-Nov-19 14:18 36.209191 -115.198306 316 2208ft 0kts
29-Nov-19 14:19 36.209195 -115.198310 316 2208ft 0kts
29-Nov-19 14:20 36.209198 -115.198314 316 2208ft 0kts
29-Nov-19 14:21 36.209236 -115.198357 320 2208ft 3kts
29-Nov-19 14:22 36.210747 -115.197653 59 2208ft 10kts
29-Nov-19 14:23 36.211452 -115.196264 55 2208ft 0kts
29-Nov-19 14:24 36.211454 -115.196260 55 2208ft 0kts
29-Nov-19 14:25 36.211631 -115.195949 56 2208ft 7kts
29-Nov-19 14:26 36.212904 -115.191826 87 2208ft 16kts
29-Nov-19 14:27 36.213099 -115.186491 33 2208ft 4kts
29-Nov-19 14:28 36.213143 -115.186466 18 2208ft 0kts
29-Nov-19 14:29 36.213147 -115.186465 18 2208ft 0kts
29-Nov-19 14:30 36.213263 -115.186435 6 2208ft 3kts
29-Nov-19 14:31 36.213655 -115.187827 265 2208ft 47kts
29-Nov-19 14:32 36.215598 -115.228842 276 3688ft 151kts
29-Nov-19 14:33 36.232765 -115.278220 329 5496ft 177kts
29-Nov-19 14:34 36.276456 -115.267034 76 7547ft 207kts
29-Nov-19 14:35 36.242363 -115.231969 194 9583ft 189kts
29-Nov-19 14:36 36.189680 -115.222438 163 11589ft 200kts
29-Nov-19 14:37 36.138272 -115.193527 161 13598ft 202kts
29-Nov-19 14:38 36.086336 -115.163935 164 14991ft 222kts
29-Nov-19 14:39 36.030220 -115.176218 199 15013ft 200kts
29-Nov-19 14:40 35.976888 -115.194422 200 15040ft 199kts
29-Nov-19 14:41 35.923105 -115.212745 199 15050ft 202kts
29-Nov-19 14:42 35.868621 -115.230912 199 15049ft 203kts
29-Nov-19 14:43 35.812462 -115.249713 199 15053ft 221kts
29-Nov-19 14:44 35.751999 -115.269828 199 15051ft 225kts
29-Nov-19 14:45 35.691360 -115.290154 199 15053ft 226kts
29-Nov-19 14:46 35.645548 -115.337774 230 15056ft 219kts
29-Nov-19 14:47 35.607099 -115.390238 229 16284ft 195kts
29-Nov-19 14:48 35.571430 -115.438675 230 17765ft 191kts
29-Nov-19 14:49 35.533321 -115.489466 229 19291ft 206kts
29-Nov-19 14:50 35.494510 -115.541768 229 20790ft 206kts
29-Nov-19 14:51 35.455959 -115.593320 229 22297ft 204kts
29-Nov-19 14:52 35.416854 -115.645918 230 23326ft 206kts
29-Nov-19 14:53 35.376829 -115.698648 229 23834ft 219kts
29-Nov-19 14:54 35.335013 -115.754650 229 23835ft 224kts
29-Nov-19 14:55 35.292674 -115.810784 229 23836ft 224kts
29-Nov-19 14:56 35.250493 -115.866868 230 23859ft 224kts
29-Nov-19 14:57 35.208049 -115.922786 230 23856ft 224kts
29-Nov-19 14:58 35.165646 -115.978962 229 23857ft 224kts
29-Nov-19 14:59 35.123559 -116.034631 233 23869ft 221kts
29-Nov-19 15:00 35.081897 -116.089757 234 23860ft 219kts
29-Nov-19 15:01 35.040470 -116.144388 234 23861ft 218kts
29-Nov-19 15:02 34.999256 -116.198648 234 23887ft 217kts
29-Nov-19 15:03 34.957854 -116.252542 234 23869ft 217kts
29-Nov-19 15:04 34.917122 -116.306135 235 23893ft 215kts
29-Nov-19 15:05 34.876392 -116.359808 235 23876ft 215kts
29-Nov-19 15:06 34.835589 -116.413155 235 23878ft 215kts
29-Nov-19 15:07 34.794803 -116.466092 235 23886ft 214kts
29-Nov-19 15:08 34.752689 -116.517775 234 23886ft 214kts
29-Nov-19 15:09 34.712827 -116.566373 235 23246ft 195kts
29-Nov-19 15:10 34.671546 -116.617509 233 22259ft 221kts
29-Nov-19 15:11 34.629546 -116.668860 233 21210ft 223kts
29-Nov-19 15:12 34.585835 -116.722557 232 20113ft 225kts
29-Nov-19 15:13 34.542899 -116.775062 232 19012ft 213kts
29-Nov-19 15:14 34.501284 -116.825769 232 17918ft 212kts
29-Nov-19 15:15 34.459866 -116.876517 232 16915ft 211kts
29-Nov-19 15:16 34.418270 -116.926885 232 15850ft 212kts
29-Nov-19 15:17 34.376496 -116.977657 231 14763ft 212kts
29-Nov-19 15:18 34.336504 -117.026179 231 13762ft 198kts
29-Nov-19 15:19 34.297996 -117.072918 231 12771ft 195kts
29-Nov-19 15:20 34.256745 -117.114323 198 12065ft 201kts
29-Nov-19 15:21 34.202854 -117.121386 198 12082ft 203kts
29-Nov-19 15:22 34.141659 -117.131452 194 12098ft 230kts
29-Nov-19 15:23 34.077965 -117.140744 195 12104ft 226kts
29-Nov-19 15:24 34.018364 -117.149537 196 12101ft 210kts
29-Nov-19 15:25 33.960322 -117.158068 197 12093ft 210kts
29-Nov-19 15:26 33.901950 -117.166781 197 12077ft 214kts
29-Nov-19 15:27 33.843524 -117.175253 197 12083ft 210kts
29-Nov-19 15:28 33.789886 -117.193484 231 12088ft 189kts
29-Nov-19 15:29 33.778142 -117.248436 272 12111ft 173kts
29-Nov-19 15:30 33.777710 -117.306679 271 12110ft 174kts
29-Nov-19 15:31 33.778225 -117.364680 272 12110ft 173kts
29-Nov-19 15:32 33.778866 -117.422869 272 12110ft 174kts
29-Nov-19 15:33 33.779475 -117.480914 272 12119ft 173kts
29-Nov-19 15:34 33.779895 -117.538861 272 12123ft 173kts
29-Nov-19 15:35 33.780442 -117.596727 272 12125ft 173kts
29-Nov-19 15:36 33.780844 -117.656339 272 11238ft 180kts
29-Nov-19 15:37 33.781259 -117.714530 271 10100ft 162kts
29-Nov-19 15:38 33.781575 -117.768451 271 9087ft 163kts
29-Nov-19 15:39 33.782031 -117.822891 271 8087ft 163kts
29-Nov-19 15:40 33.782439 -117.877421 271 7093ft 163kts
29-Nov-19 15:41 33.782624 -117.932180 270 6154ft 161kts
29-Nov-19 15:42 33.782678 -117.981395 266 5989ft 134kts
29-Nov-19 15:43 33.758507 -118.022803 236 4921ft 177kts
29-Nov-19 15:44 33.727117 -118.072404 235 3396ft 186kts
29-Nov-19 15:45 33.696156 -118.120893 234 2085ft 173kts
29-Nov-19 15:46 33.695234 -118.166213 285 2001ft 131kts
29-Nov-19 15:47 33.711511 -118.201710 307 1994ft 118kts
29-Nov-19 15:48 33.732307 -118.231788 304 1997ft 115kts
29-Nov-19 15:49 33.754794 -118.265693 305 1824ft 169kts
29-Nov-19 15:50 33.778900 -118.301365 306 774ft 104kts
29-Nov-19 15:51 33.796927 -118.328832 305 254ft 113kts
29-Nov-19 15:53 33.807666 -118.345132 298 106ft 16kts
29-Nov-19 15:54 33.806738 -118.346610 207 106ft 5kts
29-Nov-19 15:55 33.804817 -118.345911 132 106ft 7kts
29-Nov-19 15:56 33.804524 -118.345861 213 106ft 0kts

Navigation Log

Ident Type
Flight plan parsing failed, navigation log unavailable